Time,TemperatureF,DewpointF,PressureIn,WindDirection,WindDirectionDegrees,WindSpeedMPH,WindSpeedGustMPH,Humidity,HourlyPrecipIn,Conditions,Clouds,dailyrainin,SoftwareType,DateUTC
2013-05-17 00:04:00,65.3,54.9,29.88,SW,222,0.0,0.0,69,0.00,,SKC,0.00,VWS V14.01,2013-05-17 05:04:00,
2013-05-17 00:09:00,65.3,55.3,29.88,SW,222,0.0,0.0,70,0.00,,SKC,0.00,VWS V14.01,2013-05-17 05:09:00,
2013-05-17 00:14:00,65.3,56.4,29.88,SW,222,0.0,0.0,73,0.00,,SKC,0.00,VWS V14.01,2013-05-17 05:14:00,
2013-05-17 00:19:00,65.5,58.5,29.88,SE,129,0.0,0.0,78,0.00,,SKC,0.00,VWS V14.01,2013-05-17 05:19:00,
2013-05-17 00:25:00,65.5,58.8,29.88,SE,124,0.0,0.0,79,0.00,,SKC,0.00,VWS V14.01,2013-05-17 05:25:00,
2013-05-17 00:30:00,65.7,59.0,29.88,SE,136,0.0,5.6,79,0.00,,SKC,0.00,VWS V14.01,2013-05-17 05:30:00,
2013-05-17 00:35:00,65.7,58.6,29.88,ESE,109,0.0,0.0,78,0.00,,SKC,0.00,VWS V14.01,2013-05-17 05:35:00,
2013-05-17 00:40:00,65.7,58.6,29.88,East,90,0.0,0.0,78,0.00,,SKC,0.00,VWS V14.01,2013-05-17 05:40:00,
2013-05-17 00:45:00,65.7,58.6,29.88,ESE,123,0.0,0.0,78,0.00,,SKC,0.00,VWS V14.01,2013-05-17 05:45:00,
2013-05-17 00:50:00,65.5,58.1,29.88,ESE,111,4.0,5.6,77,0.00,,SKC,0.00,VWS V14.01,2013-05-17 05:50:00,
2013-05-17 00:55:00,65.5,58.1,29.88,NE,54,0.0,0.0,77,0.00,,SKC,0.00,VWS V14.01,2013-05-17 05:55:00,
2013-05-17 01:00:00,65.3,57.9,29.88,ESE,108,6.4,6.4,77,0.00,,SKC,0.00,VWS V14.01,2013-05-17 06:00:00,
2013-05-17 01:05:00,65.1,57.7,29.88,East,92,4.0,6.4,77,0.00,,SKC,0.00,VWS V14.01,2013-05-17 06:05:00,
2013-05-17 01:11:00,65.1,57.4,29.88,ENE,73,5.6,8.9,76,0.00,,SKC,0.00,VWS V14.01,2013-05-17 06:11:00,
2013-05-17 01:16:00,65.3,56.4,29.88,ENE,68,5.6,8.1,73,0.00,,SKC,0.00,VWS V14.01,2013-05-17 06:16:00,
2013-05-17 01:21:00,65.3,55.7,29.88,East,89,4.8,9.7,71,0.00,,SKC,0.00,VWS V14.01,2013-05-17 06:21:00,
2013-05-17 01:26:00,65.3,55.7,29.88,ESE,117,7.2,8.9,71,0.00,,SKC,0.00,VWS V14.01,2013-05-17 06:26:00,
2013-05-17 01:31:00,65.1,55.5,29.88,SSE,151,0.0,0.0,71,0.00,,SKC,0.00,VWS V14.01,2013-05-17 06:31:00,
2013-05-17 01:36:00,64.9,55.3,29.88,ESE,118,6.4,7.2,71,0.00,,SKC,0.00,VWS V14.01,2013-05-17 06:36:00,
2013-05-17 01:40:00,64.8,55.2,29.88,East,88,0.0,4.0,71,0.00,,SKC,0.00,VWS V14.01,2013-05-17 06:40:00,
2013-05-17 01:41:00,64.8,55.2,29.88,East,95,0.0,0.0,71,0.00,,SKC,0.00,VWS V14.01,2013-05-17 06:41:00,
2013-05-17 01:46:00,64.8,55.2,29.88,East,90,4.8,4.8,71,0.00,,SKC,0.00,VWS V14.01,2013-05-17 06:46:00,
2013-05-17 01:51:00,64.6,55.0,29.88,East,87,0.0,4.0,71,0.00,,SKC,0.00,VWS V14.01,2013-05-17 06:51:00,
2013-05-17 01:57:00,64.0,54.8,29.88,NE,56,0.0,0.0,72,0.00,,SKC,0.00,VWS V14.01,2013-05-17 06:57:00,
2013-05-17 02:02:00,63.9,55.4,29.88,NE,56,0.0,0.0,74,0.00,,SKC,0.00,VWS V14.01,2013-05-17 07:02:00,
2013-05-17 02:07:00,63.7,55.6,29.88,ENE,59,0.0,0.0,75,0.00,,SKC,0.00,VWS V14.01,2013-05-17 07:07:00,
2013-05-17 02:12:00,63.5,55.4,29.88,NE,56,4.8,5.6,75,0.00,,SKC,0.00,VWS V14.01,2013-05-17 07:12:00,
2013-05-17 02:17:00,63.5,55.4,29.88,ENE,61,0.0,0.0,75,0.00,,SKC,0.00,VWS V14.01,2013-05-17 07:17:00,
2013-05-17 02:22:00,63.5,54.3,29.88,ESE,118,0.0,6.4,72,0.00,,SKC,0.00,VWS V14.01,2013-05-17 07:22:00,
2013-05-17 02:27:00,63.9,53.9,29.88,ESE,108,4.8,4.8,70,0.00,,SKC,0.00,VWS V14.01,2013-05-17 07:27:00,
2013-05-17 02:32:00,63.7,53.7,29.88,ESE,117,0.0,0.0,70,0.00,,SKC,0.00,VWS V14.01,2013-05-17 07:32:00,
2013-05-17 02:36:00,63.0,53.8,29.88,SSE,150,4.8,7.2,72,0.04,,SKC,0.04,VWS V14.01,2013-05-17 07:36:00,
2013-05-17 02:38:00,63.5,53.5,29.88,ESE,117,0.0,0.0,70,0.00,,SKC,0.00,VWS V14.01,2013-05-17 07:38:00,
2013-05-17 02:39:00,62.4,53.7,29.88,ESE,121,8.9,9.7,73,0.08,,SKC,0.08,VWS V14.01,2013-05-17 07:39:00,
2013-05-17 02:41:00,62.2,53.5,29.91,ENE,67,7.2,10.5,73,0.08,,SKC,0.08,VWS V14.01,2013-05-17 07:41:00,
2013-05-17 02:42:00,62.1,53.7,29.91,ESE,107,9.7,10.5,74,0.08,,SKC,0.08,VWS V14.01,2013-05-17 07:42:00,
2013-05-17 02:43:00,63.3,54.2,29.88,ESE,122,5.6,5.6,72,0.04,,SKC,0.04,VWS V14.01,2013-05-17 07:43:00,
2013-05-17 02:48:00,62.6,53.5,29.88,ESE,110,9.7,9.7,72,0.08,,SKC,0.08,VWS V14.01,2013-05-17 07:48:00,
2013-05-17 02:53:00,61.7,53.3,29.91,ESE,103,7.2,9.7,74,0.08,,SKC,0.08,VWS V14.01,2013-05-17 07:53:00,
2013-05-17 02:59:00,60.8,53.5,29.91,East,91,0.0,0.0,77,0.28,,SKC,0.28,VWS V14.01,2013-05-17 07:59:00,
2013-05-17 03:05:00,60.3,54.8,29.91,East,93,7.2,9.7,82,0.35,,SKC,0.35,VWS V14.01,2013-05-17 08:05:00,
2013-05-17 03:10:00,60.1,55.6,29.91,ESE,110,14.5,14.5,85,0.43,,SKC,0.43,VWS V14.01,2013-05-17 08:10:00,
2013-05-17 03:15:00,59.9,55.7,29.91,NE,48,6.4,11.3,86,0.43,,SKC,0.43,VWS V14.01,2013-05-17 08:15:00,
2013-05-17 03:20:00,59.7,55.8,29.91,ENE,76,7.2,14.9,87,0.43,,SKC,0.43,VWS V14.01,2013-05-17 08:20:00,
2013-05-17 03:25:00,59.9,56.3,29.91,East,92,5.6,5.6,88,0.43,,SKC,0.43,VWS V14.01,2013-05-17 08:25:00,
2013-05-17 03:30:00,59.9,56.7,29.91,East,92,5.6,5.6,89,0.43,,SKC,0.43,VWS V14.01,2013-05-17 08:30:00,
2013-05-17 03:35:00,59.9,57.0,29.91,ENE,77,12.1,12.1,90,0.43,,SKC,0.43,VWS V14.01,2013-05-17 08:35:00,
2013-05-17 03:39:00,59.7,57.1,29.91,NE,34,18.9,18.9,91,0.43,,SKC,0.47,VWS V14.01,2013-05-17 08:39:00,
2013-05-17 03:40:00,59.9,57.3,29.91,NE,46,4.0,5.6,91,0.47,,SKC,0.47,VWS V14.01,2013-05-17 08:40:00,
2013-05-17 03:43:00,59.7,57.1,29.91,NE,48,15.7,15.7,91,0.39,,SKC,0.47,VWS V14.01,2013-05-17 08:43:00,
2013-05-17 03:45:00,59.7,57.1,29.91,NNE,17,4.0,4.0,91,0.43,,SKC,0.47,VWS V14.01,2013-05-17 08:45:00,
2013-05-17 03:50:00,59.7,57.1,29.91,East,92,5.6,14.5,91,0.39,,SKC,0.47,VWS V14.01,2013-05-17 08:50:00,
2013-05-17 03:56:00,59.5,56.9,29.91,East,87,0.0,0.0,91,0.39,,SKC,0.55,VWS V14.01,2013-05-17 08:56:00,
2013-05-17 04:02:00,59.5,57.2,29.91,NE,55,0.0,0.0,92,0.24,,SKC,0.55,VWS V14.01,2013-05-17 09:02:00,
2013-05-17 04:08:00,59.4,57.0,29.91,NE,55,0.0,0.0,92,0.16,,SKC,0.55,VWS V14.01,2013-05-17 09:08:00,
2013-05-17 04:13:00,59.4,57.0,29.91,NE,55,0.0,0.0,92,0.12,,SKC,0.55,VWS V14.01,2013-05-17 09:13:00,
2013-05-17 04:18:00,59.4,57.0,29.91,NE,55,0.0,0.0,92,0.12,,SKC,0.55,VWS V14.01,2013-05-17 09:18:00,
2013-05-17 04:23:00,59.7,57.7,29.93,NE,55,0.0,0.0,93,0.12,,SKC,0.55,VWS V14.01,2013-05-17 09:23:00,
2013-05-17 04:28:00,60.1,58.0,29.93,NNW,344,9.7,23.0,93,0.16,,SKC,0.59,VWS V14.01,2013-05-17 09:28:00,
2013-05-17 04:33:00,59.9,57.9,29.93,NE,42,16.5,22.1,93,0.31,,SKC,0.75,VWS V14.01,2013-05-17 09:33:00,
2013-05-17 04:38:00,59.7,57.7,29.93,North,353,0.0,0.0,93,0.35,,SKC,0.79,VWS V14.01,2013-05-17 09:38:00,
2013-05-17 04:40:00,59.5,57.5,29.96,ENE,61,7.2,7.2,93,0.51,,SKC,0.98,VWS V14.01,2013-05-17 09:40:00,
2013-05-17 04:41:00,59.5,57.5,29.96,NNE,19,0.0,7.2,93,0.51,,SKC,0.98,VWS V14.01,2013-05-17 09:41:00,
2013-05-17 04:42:00,59.4,57.3,29.96,NNE,19,0.0,0.0,93,0.51,,SKC,0.98,VWS V14.01,2013-05-17 09:42:00,
2013-05-17 04:43:00,59.5,57.5,29.93,ENE,58,10.5,10.5,93,0.43,,SKC,0.91,VWS V14.01,2013-05-17 09:43:00,
2013-05-17 04:48:00,59.5,57.5,29.93,ENE,61,7.2,7.2,93,0.47,,SKC,0.94,VWS V14.01,2013-05-17 09:48:00,
2013-05-17 04:53:00,59.4,57.3,29.96,NNE,28,0.0,0.0,93,0.51,,SKC,0.98,VWS V14.01,2013-05-17 09:53:00,
2013-05-17 04:59:00,59.4,57.3,29.96,ENE,67,4.8,4.8,93,0.47,,SKC,1.02,VWS V14.01,2013-05-17 09:59:00,
2013-05-17 05:04:00,59.0,57.0,29.96,NE,37,14.9,14.9,93,0.51,,SKC,1.06,VWS V14.01,2013-05-17 10:04:00,
2013-05-17 05:09:00,59.0,57.3,29.93,NE,35,14.5,14.5,94,0.51,,SKC,1.06,VWS V14.01,2013-05-17 10:09:00,
2013-05-17 05:14:00,58.3,56.6,29.93,North,353,0.0,0.0,94,0.55,,SKC,1.10,VWS V14.01,2013-05-17 10:14:00,
2013-05-17 05:19:00,57.9,56.2,29.93,NE,43,10.5,10.5,94,0.55,,SKC,1.10,VWS V14.01,2013-05-17 10:19:00,
2013-05-17 05:24:00,57.6,55.8,29.96,NE,50,0.0,0.0,94,0.55,,SKC,1.10,VWS V14.01,2013-05-17 10:24:00,
2013-05-17 05:29:00,57.6,55.8,29.96,NE,50,0.0,0.0,94,0.51,,SKC,1.10,VWS V14.01,2013-05-17 10:29:00,
2013-05-17 05:34:00,57.6,55.8,29.96,NNW,339,0.0,0.0,94,0.39,,SKC,1.14,VWS V14.01,2013-05-17 10:34:00,
2013-05-17 05:39:00,57.7,56.0,29.99,NE,51,0.0,0.0,94,0.39,,SKC,1.18,VWS V14.01,2013-05-17 10:39:00,
2013-05-17 05:42:00,57.6,56.1,29.99,ENE,71,8.1,8.1,95,0.31,,SKC,1.30,VWS V14.01,2013-05-17 10:42:00,
2013-05-17 05:44:00,57.7,56.0,29.99,NE,38,6.4,6.4,94,0.35,,SKC,1.22,VWS V14.01,2013-05-17 10:44:00,
2013-05-17 05:45:00,57.6,56.1,29.99,ESE,118,5.6,8.1,95,0.31,,SKC,1.30,VWS V14.01,2013-05-17 10:45:00,
2013-05-17 05:46:00,57.6,56.1,29.99,NE,46,10.5,10.5,95,0.35,,SKC,1.34,VWS V14.01,2013-05-17 10:46:00,
2013-05-17 05:47:00,57.6,56.1,29.99,NE,46,0.0,10.5,95,0.35,,SKC,1.34,VWS V14.01,2013-05-17 10:47:00,
2013-05-17 05:49:00,57.6,55.8,29.99,NE,46,0.0,5.6,94,0.35,,SKC,1.30,VWS V14.01,2013-05-17 10:49:00,
2013-05-17 05:54:00,57.6,56.1,29.99,ENE,71,8.1,8.1,95,0.31,,SKC,1.30,VWS V14.01,2013-05-17 10:54:00,
2013-05-17 05:59:00,57.6,56.1,29.99,ESE,108,0.0,0.0,95,0.35,,SKC,1.34,VWS V14.01,2013-05-17 10:59:00,
2013-05-17 06:04:00,57.4,56.0,29.99,ESE,110,11.3,11.3,95,0.31,,SKC,1.38,VWS V14.01,2013-05-17 11:04:00,
2013-05-17 06:09:00,57.0,55.6,29.96,ESE,110,11.3,11.3,95,0.31,,SKC,0.00,VWS V14.01,2013-05-17 11:09:00,
2013-05-17 06:14:00,57.0,55.6,29.96,ESE,110,11.3,11.3,95,0.28,,SKC,1.38,VWS V14.01,2013-05-17 11:14:00,
2013-05-17 06:19:00,57.0,55.9,29.96,ENE,65,7.2,7.2,96,0.28,,SKC,1.38,VWS V14.01,2013-05-17 11:19:00,
2013-05-17 06:24:00,56.8,55.7,29.96,ENE,61,7.2,7.2,96,0.28,,SKC,1.38,VWS V14.01,2013-05-17 11:24:00,
2013-05-17 06:29:00,56.8,55.7,29.96,East,82,16.5,16.5,96,0.31,,SKC,1.42,VWS V14.01,2013-05-17 11:29:00,
2013-05-17 06:30:00,56.7,55.5,29.96,East,89,0.0,0.0,96,0.24,,SKC,1.42,VWS V14.01,2013-05-17 11:30:00,
2013-05-17 06:32:00,56.7,55.5,29.96,East,89,0.0,0.0,96,0.20,,SKC,1.42,VWS V14.01,2013-05-17 11:32:00,
2013-05-17 06:34:00,56.8,55.7,29.96,East,89,0.0,0.0,96,0.28,,SKC,1.42,VWS V14.01,2013-05-17 11:34:00,
2013-05-17 06:36:00,56.5,55.4,29.96,East,89,0.0,0.0,96,0.20,,SKC,1.42,VWS V14.01,2013-05-17 11:36:00,
2013-05-17 06:39:00,56.8,55.7,29.96,East,89,0.0,0.0,96,0.24,,SKC,1.42,VWS V14.01,2013-05-17 11:39:00,
2013-05-17 06:42:00,56.3,55.2,29.96,East,89,0.0,0.0,96,0.16,,SKC,1.46,VWS V14.01,2013-05-17 11:42:00,
2013-05-17 06:44:00,56.5,55.4,29.96,East,89,0.0,0.0,96,0.20,,SKC,1.42,VWS V14.01,2013-05-17 11:44:00,
2013-05-17 06:47:00,55.9,54.8,29.96,ENE,68,15.7,15.7,96,0.12,,SKC,1.46,VWS V14.01,2013-05-17 11:47:00,
2013-05-17 06:49:00,56.3,55.2,29.96,East,89,0.0,0.0,96,0.12,,SKC,1.42,VWS V14.01,2013-05-17 11:49:00,
2013-05-17 06:54:00,55.9,54.8,29.96,ENE,68,15.7,15.7,96,0.16,,SKC,1.46,VWS V14.01,2013-05-17 11:54:00,
2013-05-17 07:00:00,55.8,54.6,29.96,SE,136,9.7,9.7,96,0.12,,SKC,1.46,VWS V14.01,2013-05-17 12:00:00,
2013-05-17 07:05:00,55.4,54.3,29.96,East,87,10.5,13.7,96,0.08,,SKC,1.46,VWS V14.01,2013-05-17 12:05:00,
2013-05-17 07:10:00,55.4,54.3,29.96,NE,42,9.7,15.7,96,0.08,,SKC,1.46,VWS V14.01,2013-05-17 12:10:00,
2013-05-17 07:15:00,55.2,54.1,29.96,East,100,12.9,15.7,96,0.08,,SKC,1.46,VWS V14.01,2013-05-17 12:15:00,
2013-05-17 07:20:00,54.9,53.7,29.96,NE,42,10.5,10.5,96,0.08,,SKC,1.46,VWS V14.01,2013-05-17 12:20:00,
2013-05-17 07:25:00,54.7,53.6,29.96,ENE,75,6.4,14.9,96,0.08,,SKC,1.46,VWS V14.01,2013-05-17 12:25:00,
2013-05-17 07:30:00,54.5,53.1,29.96,ESE,115,4.8,18.1,95,0.04,,SKC,1.46,VWS V14.01,2013-05-17 12:30:00,
2013-05-17 07:36:00,54.3,52.9,29.96,ENE,62,10.5,13.7,95,0.04,,SKC,1.46,VWS V14.01,2013-05-17 12:36:00,
2013-05-17 07:41:00,54.0,52.6,29.96,ENE,74,0.0,18.9,95,0.04,,SKC,1.46,VWS V14.01,2013-05-17 12:41:00,
2013-05-17 07:47:00,53.8,52.4,29.96,ENE,77,6.4,14.9,95,0.04,,SKC,1.46,VWS V14.01,2013-05-17 12:47:00,
2013-05-17 07:52:00,53.4,52.0,29.96,SE,136,9.7,14.5,95,0.00,,SKC,1.46,VWS V14.01,2013-05-17 12:52:00,
2013-05-17 07:57:00,53.2,51.8,29.96,NE,52,6.4,10.5,95,0.00,,SKC,1.46,VWS V14.01,2013-05-17 12:57:00,
2013-05-17 08:03:00,52.9,51.5,29.96,ESE,114,18.9,18.9,95,0.00,,SKC,1.46,VWS V14.01,2013-05-17 13:03:00,
2013-05-17 08:09:00,52.7,51.0,29.96,East,87,10.5,10.5,94,0.00,,SKC,1.46,VWS V14.01,2013-05-17 13:09:00,
2013-05-17 08:14:00,52.9,51.2,29.96,SE,137,10.5,19.7,94,0.00,,SKC,1.46,VWS V14.01,2013-05-17 13:14:00,
2013-05-17 08:19:00,52.7,51.3,29.96,ENE,73,0.0,16.5,95,0.00,,SKC,1.46,VWS V14.01,2013-05-17 13:19:00,
2013-05-17 08:25:00,52.7,51.3,29.96,East,87,7.2,13.7,95,0.00,,SKC,1.46,VWS V14.01,2013-05-17 13:25:00,
2013-05-17 08:30:00,52.7,51.3,29.96,East,85,0.0,4.8,95,0.00,,SKC,1.46,VWS V14.01,2013-05-17 13:30:00,
2013-05-17 08:36:00,52.9,51.5,29.96,ESE,106,4.8,9.7,95,0.00,,SKC,1.46,VWS V14.01,2013-05-17 13:36:00,
2013-05-17 08:41:00,53.1,51.7,29.96,East,92,7.2,7.2,95,0.00,,SKC,1.46,VWS V14.01,2013-05-17 13:41:00,
2013-05-17 08:47:00,53.1,51.4,29.96,NE,49,4.0,4.0,94,0.00,,SKC,1.46,VWS V14.01,2013-05-17 13:47:00,
2013-05-17 08:52:00,53.1,51.4,29.99,NE,34,8.1,8.9,94,0.00,,SKC,1.46,VWS V14.01,2013-05-17 13:52:00,
2013-05-17 08:54:00,53.6,51.9,29.99,NE,38,9.7,9.7,94,0.00,,SKC,1.46,VWS V14.01,2013-05-17 13:54:00,
2013-05-17 08:57:00,53.2,51.6,29.99,ESE,113,4.8,4.8,94,0.00,,SKC,1.46,VWS V14.01,2013-05-17 13:57:00,
2013-05-17 09:02:00,53.6,51.9,29.99,ENE,76,8.1,8.1,94,0.00,,SKC,1.46,VWS V14.01,2013-05-17 14:02:00,
2013-05-17 09:07:00,53.8,52.1,29.99,East,81,0.0,4.8,94,0.00,,SKC,1.46,VWS V14.01,2013-05-17 14:07:00,
2013-05-17 09:13:00,53.6,51.6,29.99,ESE,105,7.2,14.5,93,0.00,,SKC,1.46,VWS V14.01,2013-05-17 14:13:00,
2013-05-17 09:18:00,54.0,52.0,29.99,ENE,70,8.9,10.5,93,0.00,,SKC,1.46,VWS V14.01,2013-05-17 14:18:00,
2013-05-17 09:24:00,54.1,51.9,29.99,NE,43,0.0,0.0,92,0.00,,SKC,1.46,VWS V14.01,2013-05-17 14:24:00,
2013-05-17 09:29:00,54.5,52.2,29.99,ENE,58,10.5,14.9,92,0.00,,SKC,1.46,VWS V14.01,2013-05-17 14:29:00,
2013-05-17 09:33:00,55.2,51.1,29.96,NE,43,4.8,5.6,86,0.00,,SKC,1.46,VWS V14.01,2013-05-17 14:33:00,
2013-05-17 09:34:00,54.5,51.6,29.99,ENE,73,0.0,7.2,90,0.00,,SKC,1.46,VWS V14.01,2013-05-17 14:34:00,
2013-05-17 09:39:00,55.2,52.0,29.96,ENE,78,7.2,7.2,89,0.00,,SKC,1.46,VWS V14.01,2013-05-17 14:39:00,
2013-05-17 09:43:00,56.3,51.5,29.96,East,93,8.1,8.1,84,0.00,,SKC,1.46,VWS V14.01,2013-05-17 14:43:00,
2013-05-17 09:44:00,55.4,51.0,29.96,ENE,68,0.0,5.6,85,0.00,,SKC,1.46,VWS V14.01,2013-05-17 14:44:00,
2013-05-17 09:49:00,55.6,50.8,29.96,ENE,75,9.7,11.3,84,0.00,,SKC,1.46,VWS V14.01,2013-05-17 14:49:00,
2013-05-17 09:54:00,56.7,51.9,29.96,ESE,115,0.0,0.0,84,0.00,,SKC,1.46,VWS V14.01,2013-05-17 14:54:00,
2013-05-17 09:59:00,56.8,51.4,29.96,East,84,5.6,15.7,82,0.00,,SKC,1.46,VWS V14.01,2013-05-17 14:59:00,
2013-05-17 10:04:00,56.7,50.6,29.96,East,99,14.5,14.5,80,0.00,,SKC,1.46,VWS V14.01,2013-05-17 15:04:00,
2013-05-17 10:09:00,56.8,50.1,29.96,ESE,103,0.0,0.0,78,0.00,,SKC,1.46,VWS V14.01,2013-05-17 15:09:00,
2013-05-17 10:14:00,57.4,50.2,29.96,East,82,14.5,14.5,77,0.00,,SKC,1.46,VWS V14.01,2013-05-17 15:14:00,
2013-05-17 10:19:00,57.2,49.0,29.96,East,87,0.0,0.0,74,0.00,,SKC,1.46,VWS V14.01,2013-05-17 15:19:00,
2013-05-17 10:24:00,57.7,49.5,29.96,East,100,13.7,13.7,74,0.00,,SKC,1.46,VWS V14.01,2013-05-17 15:24:00,
2013-05-17 10:29:00,58.6,50.0,29.96,ESE,107,0.0,0.0,73,0.00,,SKC,1.46,VWS V14.01,2013-05-17 15:29:00,
2013-05-17 10:34:00,58.8,49.1,29.96,ENE,76,8.1,8.1,70,0.00,,SKC,1.46,VWS V14.01,2013-05-17 15:34:00,
2013-05-17 10:39:00,57.7,46.9,29.96,SE,125,10.5,15.7,67,0.00,,SKC,1.46,VWS V14.01,2013-05-17 15:39:00,
2013-05-17 10:44:00,57.6,47.9,29.96,ESE,112,8.9,8.9,70,0.00,,SKC,1.46,VWS V14.01,2013-05-17 15:44:00,
2013-05-17 10:49:00,57.6,47.9,29.96,ESE,118,12.9,12.9,70,0.00,,SKC,1.46,VWS V14.01,2013-05-17 15:49:00,
2013-05-17 10:54:00,58.1,48.4,29.96,ENE,77,6.4,6.4,70,0.00,,SKC,1.46,VWS V14.01,2013-05-17 15:54:00,
2013-05-17 10:59:00,58.5,47.6,29.96,ESE,106,9.7,9.7,67,0.00,,SKC,1.46,VWS V14.01,2013-05-17 15:59:00,
2013-05-17 11:04:00,58.5,48.0,29.96,ESE,122,9.7,9.7,68,0.00,,SKC,1.46,VWS V14.01,2013-05-17 16:04:00,
2013-05-17 11:09:00,58.6,48.5,29.99,East,96,5.6,13.7,69,0.00,,SKC,0.00,VWS V14.01,2013-05-17 16:09:00,
2013-05-17 11:14:00,57.9,47.0,29.99,East,89,8.9,8.9,67,0.00,,SKC,1.46,VWS V14.01,2013-05-17 16:14:00,
2013-05-17 11:19:00,58.1,47.6,29.99,East,99,8.9,9.7,68,0.00,,SKC,1.46,VWS V14.01,2013-05-17 16:19:00,
2013-05-17 11:24:00,57.7,47.7,29.96,SE,131,10.5,15.7,69,0.00,,SKC,1.46,VWS V14.01,2013-05-17 16:24:00,
2013-05-17 11:29:00,57.9,47.8,29.96,ESE,106,6.4,7.2,69,0.00,,SKC,1.46,VWS V14.01,2013-05-17 16:29:00,
2013-05-17 11:34:00,57.9,47.8,29.96,ENE,72,15.7,15.7,69,0.00,,SKC,1.46,VWS V14.01,2013-05-17 16:34:00,
2013-05-17 11:39:00,58.1,48.4,29.96,NE,44,0.0,0.0,70,0.00,,SKC,1.46,VWS V14.01,2013-05-17 16:39:00,
2013-05-17 11:44:00,58.3,48.9,29.96,ENE,67,0.0,0.0,71,0.00,,SKC,1.46,VWS V14.01,2013-05-17 16:44:00,
2013-05-17 11:49:00,58.5,49.1,29.96,NE,45,0.0,0.0,71,0.00,,SKC,1.46,VWS V14.01,2013-05-17 16:49:00,
2013-05-17 11:54:00,58.6,49.7,29.99,ENE,70,0.0,0.0,72,0.00,,SKC,1.46,VWS V14.01,2013-05-17 16:54:00,
2013-05-17 11:59:00,58.8,49.5,29.99,East,85,0.0,0.0,71,0.00,,SKC,1.46,VWS V14.01,2013-05-17 16:59:00,
2013-05-17 12:04:00,59.2,49.8,29.99,East,97,0.0,0.0,71,0.00,,SKC,1.46,VWS V14.01,2013-05-17 17:04:00,
2013-05-17 12:09:00,59.4,50.0,29.99,ENE,70,10.5,11.3,71,0.00,,SKC,1.46,VWS V14.01,2013-05-17 17:09:00,
2013-05-17 12:14:00,59.5,50.1,29.99,ESE,110,7.2,7.2,71,0.00,,SKC,1.46,VWS V14.01,2013-05-17 17:14:00,
2013-05-17 12:19:00,60.1,50.7,29.99,East,100,11.3,11.3,71,0.00,,SKC,1.46,VWS V14.01,2013-05-17 17:19:00,
2013-05-17 12:24:00,60.4,50.6,29.99,East,88,0.0,0.0,70,0.00,,SKC,1.46,VWS V14.01,2013-05-17 17:24:00,
2013-05-17 12:29:00,61.5,51.7,29.99,NE,51,0.0,4.8,70,0.00,,SKC,1.46,VWS V14.01,2013-05-17 17:29:00,
2013-05-17 12:34:00,62.1,51.0,29.99,NE,37,5.6,8.1,67,0.00,,SKC,1.46,VWS V14.01,2013-05-17 17:34:00,
2013-05-17 12:39:00,61.7,50.6,29.99,NE,54,4.0,11.3,67,0.00,,SKC,1.46,VWS V14.01,2013-05-17 17:39:00,
2013-05-17 12:44:00,61.3,50.3,29.99,East,98,13.7,13.7,67,0.00,,SKC,1.46,VWS V14.01,2013-05-17 17:44:00,
2013-05-17 12:49:00,61.9,52.0,29.99,SSE,163,0.0,0.0,70,0.00,,SKC,1.46,VWS V14.01,2013-05-17 17:49:00,
2013-05-17 12:54:00,61.5,52.0,29.99,East,87,0.0,7.2,71,0.00,,SKC,1.46,VWS V14.01,2013-05-17 17:54:00,
2013-05-17 12:59:00,61.5,52.4,29.99,NE,50,0.0,0.0,72,0.00,,SKC,1.46,VWS V14.01,2013-05-17 17:59:00,
2013-05-17 13:04:00,61.7,52.6,29.99,ENE,59,5.6,7.2,72,0.00,,SKC,1.46,VWS V14.01,2013-05-17 18:04:00,
2013-05-17 13:09:00,61.7,52.6,29.99,NE,45,0.0,8.1,72,0.00,,SKC,1.46,VWS V14.01,2013-05-17 18:09:00,
2013-05-17 13:14:00,61.3,51.5,29.99,NE,42,10.5,10.5,70,0.00,,SKC,1.46,VWS V14.01,2013-05-17 18:14:00,
2013-05-17 13:19:00,61.3,51.9,29.99,ENE,63,4.8,4.8,71,0.00,,SKC,1.46,VWS V14.01,2013-05-17 18:19:00,
2013-05-17 13:24:00,61.7,52.2,29.99,ENE,66,4.8,4.8,71,0.00,,SKC,1.46,VWS V14.01,2013-05-17 18:24:00,
2013-05-17 13:29:00,61.0,51.1,29.99,NE,53,9.7,9.7,70,0.00,,SKC,1.46,VWS V14.01,2013-05-17 18:29:00,
2013-05-17 13:34:00,60.3,51.6,29.96,East,88,7.2,9.7,73,0.00,,SKC,1.46,VWS V14.01,2013-05-17 18:34:00,
2013-05-17 13:39:00,60.1,51.8,29.96,East,88,0.0,4.8,74,0.00,,SKC,1.46,VWS V14.01,2013-05-17 18:39:00,
2013-05-17 13:44:00,60.6,52.7,29.96,North,6,0.0,4.0,75,0.00,,SKC,1.46,VWS V14.01,2013-05-17 18:44:00,
2013-05-17 13:49:00,61.2,52.5,29.99,NNE,25,11.3,11.3,73,0.00,,SKC,1.46,VWS V14.01,2013-05-17 18:49:00,
2013-05-17 13:54:00,61.7,52.2,29.99,ENE,69,11.3,11.3,71,0.00,,SKC,1.46,VWS V14.01,2013-05-17 18:54:00,
2013-05-17 13:59:00,62.2,52.7,29.99,ENE,67,8.1,10.5,71,0.00,,SKC,1.46,VWS V14.01,2013-05-17 18:59:00,
2013-05-17 14:04:00,62.6,52.7,29.99,ENE,62,0.0,8.9,70,0.00,,SKC,1.46,VWS V14.01,2013-05-17 19:04:00,
2013-05-17 14:09:00,63.3,52.6,29.96,East,92,0.0,0.0,68,0.00,,SKC,1.46,VWS V14.01,2013-05-17 19:09:00,
2013-05-17 14:14:00,63.5,52.0,29.96,East,93,0.0,9.7,66,0.00,,SKC,1.46,VWS V14.01,2013-05-17 19:14:00,
2013-05-17 14:19:00,64.0,52.5,29.96,ENE,64,7.2,7.2,66,0.00,,SKC,1.46,VWS V14.01,2013-05-17 19:19:00,
2013-05-17 14:24:00,64.0,52.5,29.96,East,85,13.7,14.5,66,0.00,,SKC,1.46,VWS V14.01,2013-05-17 19:24:00,
2013-05-17 14:29:00,64.6,52.1,29.96,NE,49,15.7,18.9,64,0.00,,SKC,1.46,VWS V14.01,2013-05-17 19:29:00,
2013-05-17 14:34:00,64.4,52.0,29.96,ENE,64,5.6,5.6,64,0.00,,SKC,1.46,VWS V14.01,2013-05-17 19:34:00,
2013-05-17 14:39:00,64.4,52.0,29.96,East,87,6.4,6.4,64,0.00,,SKC,1.46,VWS V14.01,2013-05-17 19:39:00,
2013-05-17 14:44:00,64.2,52.6,29.96,ENE,73,0.0,0.0,66,0.00,,SKC,1.46,VWS V14.01,2013-05-17 19:44:00,
2013-05-17 14:48:00,64.2,54.2,29.96,NE,34,7.2,7.2,70,0.00,,SKC,1.46,VWS V14.01,2013-05-17 19:48:00,
2013-05-17 14:50:00,64.4,54.0,29.96,ENE,73,0.0,0.0,69,0.00,,SKC,1.46,VWS V14.01,2013-05-17 19:50:00,
2013-05-17 14:55:00,64.2,54.2,29.96,NE,34,7.2,7.2,70,0.00,,SKC,1.46,VWS V14.01,2013-05-17 19:55:00,
2013-05-17 15:00:00,64.0,53.3,29.96,NE,47,0.0,7.2,68,0.00,,SKC,1.46,VWS V14.01,2013-05-17 20:00:00,
2013-05-17 15:05:00,64.4,53.6,29.96,NE,47,0.0,0.0,68,0.00,,SKC,1.46,VWS V14.01,2013-05-17 20:05:00,
2013-05-17 15:09:00,65.8,55.0,29.96,ENE,65,6.4,6.4,68,0.00,,SKC,1.46,VWS V14.01,2013-05-17 20:09:00,
2013-05-17 15:10:00,64.6,53.4,29.96,East,82,11.3,11.3,67,0.00,,SKC,1.46,VWS V14.01,2013-05-17 20:10:00,
2013-05-17 15:12:00,66.6,54.0,29.96,ENE,65,6.4,6.4,64,0.00,,SKC,1.46,VWS V14.01,2013-05-17 20:12:00,
2013-05-17 15:16:00,65.3,54.1,29.96,ENE,72,0.0,11.3,67,0.00,,SKC,1.46,VWS V14.01,2013-05-17 20:16:00,
2013-05-17 15:22:00,66.4,53.4,29.96,ENE,65,6.4,6.4,63,0.00,,SKC,1.46,VWS V14.01,2013-05-17 20:22:00,
2013-05-17 15:23:00,66.7,53.3,29.96,ESE,102,9.7,9.7,62,0.00,,SKC,1.46,VWS V14.01,2013-05-17 20:23:00,
2013-05-17 15:27:00,67.5,54.4,29.96,East,81,0.0,0.0,63,0.00,,SKC,1.46,VWS V14.01,2013-05-17 20:27:00,
2013-05-17 15:33:00,66.6,53.6,29.96,ENE,74,4.8,9.7,63,0.00,,SKC,1.46,VWS V14.01,2013-05-17 20:33:00,
2013-05-17 15:38:00,66.6,54.0,29.96,East,87,0.0,5.6,64,0.00,,SKC,1.46,VWS V14.01,2013-05-17 20:38:00,
2013-05-17 15:42:00,66.2,55.3,29.96,ENE,72,0.0,0.0,68,0.00,,SKC,1.46,VWS V14.01,2013-05-17 20:42:00,
2013-05-17 15:43:00,66.2,54.1,29.96,East,82,0.0,5.6,65,0.00,,SKC,1.46,VWS V14.01,2013-05-17 20:43:00,
2013-05-17 15:44:00,66.6,55.3,29.96,ESE,118,0.0,0.0,67,0.00,,SKC,1.46,VWS V14.01,2013-05-17 20:44:00,
2013-05-17 15:46:00,66.9,55.6,29.96,ENE,74,0.0,0.0,67,0.00,,SKC,1.46,VWS V14.01,2013-05-17 20:46:00,
2013-05-17 15:47:00,66.9,55.6,29.96,East,95,0.0,8.9,67,0.00,,SKC,1.46,VWS V14.01,2013-05-17 20:47:00,
2013-05-17 15:48:00,66.0,54.8,29.96,ESE,116,4.8,4.8,67,0.00,,SKC,1.46,VWS V14.01,2013-05-17 20:48:00,
2013-05-17 15:50:00,67.3,55.5,29.96,East,88,5.6,7.2,66,0.00,,SKC,1.46,VWS V14.01,2013-05-17 20:50:00,
2013-05-17 15:51:00,67.6,55.9,29.96,NE,51,0.0,7.2,66,0.00,,SKC,1.46,VWS V14.01,2013-05-17 20:51:00,
2013-05-17 15:52:00,67.8,56.1,29.96,East,98,0.0,7.2,66,0.00,,SKC,1.46,VWS V14.01,2013-05-17 20:52:00,
2013-05-17 15:55:00,66.7,55.5,29.96,ENE,57,0.0,0.0,67,0.00,,SKC,1.46,VWS V14.01,2013-05-17 20:55:00,
2013-05-17 16:01:00,67.6,55.9,29.96,East,90,7.2,8.9,66,0.00,,SKC,1.46,VWS V14.01,2013-05-17 21:01:00,
2013-05-17 16:06:00,67.1,54.1,29.96,East,101,4.0,7.2,63,0.00,,SKC,1.46,VWS V14.01,2013-05-17 21:06:00,
2013-05-17 16:11:00,67.1,54.5,29.96,East,96,14.5,14.5,64,0.00,,SKC,1.46,VWS V14.01,2013-05-17 21:11:00,
2013-05-17 16:16:00,66.9,54.8,29.96,SE,139,0.0,0.0,65,0.00,,SKC,1.46,VWS V14.01,2013-05-17 21:16:00,
2013-05-17 16:21:00,67.3,55.1,29.96,East,88,0.0,0.0,65,0.00,,SKC,1.46,VWS V14.01,2013-05-17 21:21:00,
2013-05-17 16:26:00,68.0,55.8,29.96,ESE,120,0.0,0.0,65,0.00,,SKC,1.46,VWS V14.01,2013-05-17 21:26:00,
2013-05-17 16:31:00,67.5,56.1,29.96,ENE,73,0.0,0.0,67,0.00,,SKC,1.46,VWS V14.01,2013-05-17 21:31:00,
2013-05-17 16:36:00,67.1,57.0,29.96,SSE,147,0.0,0.0,70,0.00,,SKC,1.46,VWS V14.01,2013-05-17 21:36:00,
2013-05-17 16:41:00,66.7,56.3,29.96,ESE,110,11.3,11.3,69,0.00,,SKC,1.46,VWS V14.01,2013-05-17 21:41:00,
2013-05-17 16:46:00,66.9,57.2,29.96,East,79,0.0,0.0,71,0.00,,SKC,1.46,VWS V14.01,2013-05-17 21:46:00,
2013-05-17 16:51:00,66.7,56.7,29.93,ENE,70,5.6,5.6,70,0.00,,SKC,1.46,VWS V14.01,2013-05-17 21:51:00,
2013-05-17 16:56:00,66.6,56.1,29.93,ENE,72,7.2,7.2,69,0.00,,SKC,1.46,VWS V14.01,2013-05-17 21:56:00,
2013-05-17 17:01:00,67.1,56.6,29.93,ENE,64,0.0,0.0,69,0.00,,SKC,1.46,VWS V14.01,2013-05-17 22:01:00,
2013-05-17 17:06:00,67.5,57.0,29.93,East,97,8.9,8.9,69,0.00,,SKC,1.46,VWS V14.01,2013-05-17 22:06:00,
2013-05-17 17:11:00,67.5,56.1,29.93,East,81,0.0,4.8,67,0.00,,SKC,1.46,VWS V14.01,2013-05-17 22:11:00,
2013-05-17 17:16:00,67.8,56.5,29.93,East,87,4.0,4.0,67,0.00,,SKC,1.46,VWS V14.01,2013-05-17 22:16:00,
2013-05-17 17:21:00,68.4,56.6,29.93,NE,49,0.0,0.0,66,0.00,,SKC,1.46,VWS V14.01,2013-05-17 22:21:00,
2013-05-17 17:26:00,67.8,55.2,29.93,East,83,0.0,0.0,64,0.00,,SKC,1.46,VWS V14.01,2013-05-17 22:26:00,
2013-05-17 17:31:00,68.2,55.5,29.93,ENE,67,0.0,0.0,64,0.00,,SKC,1.46,VWS V14.01,2013-05-17 22:31:00,
2013-05-17 17:36:00,67.8,54.8,29.93,ENE,59,0.0,0.0,63,0.00,,SKC,1.46,VWS V14.01,2013-05-17 22:36:00,
2013-05-17 17:41:00,68.4,54.8,29.93,ENE,58,0.0,0.0,62,0.00,,SKC,1.46,VWS V14.01,2013-05-17 22:41:00,
2013-05-17 17:46:00,68.0,55.0,29.93,ENE,59,0.0,0.0,63,0.00,,SKC,1.46,VWS V14.01,2013-05-17 22:46:00,
2013-05-17 17:51:00,68.4,55.3,29.93,ENE,65,10.5,13.7,63,0.00,,SKC,1.46,VWS V14.01,2013-05-17 22:51:00,
2013-05-17 17:56:00,68.9,55.4,29.93,NNE,33,7.2,7.2,62,0.00,,SKC,1.46,VWS V14.01,2013-05-17 22:56:00,
2013-05-17 18:00:00,67.6,55.0,29.93,ESE,115,5.6,5.6,64,0.00,,SKC,1.46,VWS V14.01,2013-05-17 23:00:00,
2013-05-17 18:02:00,68.7,55.2,29.93,ESE,122,0.0,0.0,62,0.00,,SKC,1.46,VWS V14.01,2013-05-17 23:02:00,
2013-05-17 18:08:00,67.8,54.8,29.93,East,92,0.0,6.4,63,0.00,,SKC,1.46,VWS V14.01,2013-05-17 23:08:00,
2013-05-17 18:13:00,67.6,55.0,29.93,ENE,62,0.0,0.0,64,0.00,,SKC,1.46,VWS V14.01,2013-05-17 23:13:00,
2013-05-17 18:18:00,67.8,55.2,29.93,East,79,4.8,10.5,64,0.00,,SKC,1.46,VWS V14.01,2013-05-17 23:18:00,
2013-05-17 18:23:00,67.6,55.5,29.93,ENE,64,0.0,6.4,65,0.00,,SKC,1.46,VWS V14.01,2013-05-17 23:23:00,
2013-05-17 18:28:00,67.6,55.5,29.93,East,94,0.0,4.8,65,0.00,,SKC,1.46,VWS V14.01,2013-05-17 23:28:00,
2013-05-17 18:33:00,67.5,55.7,29.93,ENE,77,0.0,9.7,66,0.00,,SKC,1.46,VWS V14.01,2013-05-17 23:33:00,
2013-05-17 18:37:00,67.3,55.5,29.93,East,89,0.0,0.0,66,0.00,,SKC,1.46,VWS V14.01,2013-05-17 23:37:00,
2013-05-17 18:38:00,67.3,56.0,29.93,ESE,116,0.0,0.0,67,0.00,,SKC,1.46,VWS V14.01,2013-05-17 23:38:00,
2013-05-17 18:39:00,67.3,55.5,29.93,ENE,75,0.0,8.1,66,0.00,,SKC,1.46,VWS V14.01,2013-05-17 23:39:00,
2013-05-17 18:45:00,67.5,56.1,29.93,ENE,70,8.1,8.1,67,0.00,,SKC,1.46,VWS V14.01,2013-05-17 23:45:00,
2013-05-17 18:47:00,67.1,55.8,29.93,East,92,0.0,0.0,67,0.00,,SKC,1.46,VWS V14.01,2013-05-17 23:47:00,
2013-05-17 18:48:00,67.1,56.2,29.93,NE,35,0.0,0.0,68,0.00,,SKC,1.46,VWS V14.01,2013-05-17 23:48:00,
2013-05-17 18:49:00,67.1,56.2,29.93,ENE,57,0.0,0.0,68,0.00,,SKC,1.46,VWS V14.01,2013-05-17 23:49:00,
2013-05-17 18:50:00,67.1,55.8,29.93,East,87,0.0,4.8,67,0.00,,SKC,1.46,VWS V14.01,2013-05-17 23:50:00,
2013-05-17 18:55:00,67.1,55.8,29.93,ENE,76,0.0,5.6,67,0.00,,SKC,1.46,VWS V14.01,2013-05-17 23:55:00,
2013-05-17 19:00:00,67.1,56.2,29.93,East,100,0.0,0.0,68,0.00,,SKC,1.46,VWS V14.01,2013-05-18 00:00:00,
2013-05-17 19:05:00,66.7,55.8,29.93,ENE,74,0.0,0.0,68,0.00,,SKC,1.46,VWS V14.01,2013-05-18 00:05:00,
2013-05-17 19:10:00,66.7,56.3,29.93,East,82,0.0,0.0,69,0.00,,SKC,1.46,VWS V14.01,2013-05-18 00:10:00,
2013-05-17 19:16:00,66.4,55.9,29.93,ENE,59,6.4,9.7,69,0.00,,SKC,1.46,VWS V14.01,2013-05-18 00:16:00,
2013-05-17 19:21:00,66.4,56.3,29.93,East,82,0.0,0.0,70,0.00,,SKC,1.46,VWS V14.01,2013-05-18 00:21:00,
2013-05-17 19:26:00,66.2,56.5,29.93,East,98,0.0,0.0,71,0.00,,SKC,1.46,VWS V14.01,2013-05-18 00:26:00,
2013-05-17 19:31:00,66.0,56.4,29.93,East,95,0.0,6.4,71,0.00,,SKC,1.46,VWS V14.01,2013-05-18 00:31:00,
2013-05-17 19:36:00,65.8,56.2,29.93,East,87,0.0,0.0,71,0.00,,SKC,1.46,VWS V14.01,2013-05-18 00:36:00,
2013-05-17 19:41:00,65.8,56.6,29.93,NE,49,4.0,5.6,72,0.00,,SKC,1.46,VWS V14.01,2013-05-18 00:41:00,
2013-05-17 19:46:00,65.7,56.4,29.93,ESE,102,0.0,4.8,72,0.00,,SKC,1.46,VWS V14.01,2013-05-18 00:46:00,
2013-05-17 19:51:00,65.5,56.6,29.93,ENE,75,0.0,4.8,73,0.00,,SKC,1.46,VWS V14.01,2013-05-18 00:51:00,
2013-05-17 19:56:00,65.1,56.6,29.93,NE,54,0.0,0.0,74,0.00,,SKC,1.46,VWS V14.01,2013-05-18 00:56:00,
2013-05-17 20:01:00,65.1,57.0,29.93,East,83,7.2,7.2,75,0.00,,SKC,1.46,VWS V14.01,2013-05-18 01:01:00,
2013-05-17 20:06:00,65.1,57.4,29.93,SE,128,10.5,10.5,76,0.00,,SKC,1.46,VWS V14.01,2013-05-18 01:06:00,
2013-05-17 20:11:00,65.1,57.0,29.93,ENE,69,4.0,6.4,75,0.00,,SKC,1.46,VWS V14.01,2013-05-18 01:11:00,
2013-05-17 20:16:00,65.1,57.0,29.93,East,84,0.0,0.0,75,0.00,,SKC,1.46,VWS V14.01,2013-05-18 01:16:00,
2013-05-17 20:21:00,65.3,56.8,29.93,ENE,66,0.0,0.0,74,0.00,,SKC,1.46,VWS V14.01,2013-05-18 01:21:00,
2013-05-17 20:26:00,65.1,56.6,29.93,ENE,78,0.0,0.0,74,0.00,,SKC,1.46,VWS V14.01,2013-05-18 01:26:00,
2013-05-17 20:31:00,65.1,56.6,29.93,East,93,9.7,9.7,74,0.00,,SKC,1.46,VWS V14.01,2013-05-18 01:31:00,
2013-05-17 20:36:00,65.1,56.3,29.93,East,79,5.6,5.6,73,0.00,,SKC,1.46,VWS V14.01,2013-05-18 01:36:00,
2013-05-17 20:41:00,65.1,56.3,29.93,ESE,109,4.0,4.0,73,0.00,,SKC,1.46,VWS V14.01,2013-05-18 01:41:00,
2013-05-17 20:46:00,64.9,56.1,29.93,East,86,4.8,10.5,73,0.00,,SKC,1.46,VWS V14.01,2013-05-18 01:46:00,
2013-05-17 20:51:00,64.8,55.9,29.91,ESE,109,6.4,6.4,73,0.00,,SKC,1.46,VWS V14.01,2013-05-18 01:51:00,
2013-05-17 20:56:00,64.8,55.9,29.91,South,171,0.0,7.2,73,0.00,,SKC,1.46,VWS V14.01,2013-05-18 01:56:00,
2013-05-17 21:01:00,64.8,56.3,29.91,ESE,116,5.6,16.5,74,0.00,,SKC,1.46,VWS V14.01,2013-05-18 02:01:00,
2013-05-17 21:06:00,64.6,55.7,29.91,East,101,0.0,9.7,73,0.00,,SKC,1.46,VWS V14.01,2013-05-18 02:06:00,
2013-05-17 21:11:00,64.6,56.1,29.91,ESE,109,7.2,8.9,74,0.00,,SKC,1.46,VWS V14.01,2013-05-18 02:11:00,
2013-05-17 21:16:00,64.4,55.9,29.91,SE,126,0.0,11.3,74,0.00,,SKC,1.46,VWS V14.01,2013-05-18 02:16:00,
2013-05-17 21:21:00,64.4,55.9,29.93,SE,144,6.4,9.7,74,0.00,,SKC,1.46,VWS V14.01,2013-05-18 02:21:00,
2013-05-17 21:26:00,64.2,56.1,29.93,East,86,6.4,14.5,75,0.00,,SKC,1.46,VWS V14.01,2013-05-18 02:26:00,
2013-05-17 21:31:00,64.0,56.3,29.93,ENE,76,9.7,9.7,76,0.00,,SKC,1.46,VWS V14.01,2013-05-18 02:31:00,
2013-05-17 21:36:00,63.9,56.2,29.93,ENE,77,0.0,5.6,76,0.00,,SKC,1.46,VWS V14.01,2013-05-18 02:36:00,
2013-05-17 21:41:00,63.9,56.2,29.93,East,81,0.0,7.2,76,0.00,,SKC,1.46,VWS V14.01,2013-05-18 02:41:00,
2013-05-17 21:46:00,63.9,56.2,29.93,ENE,65,0.0,6.4,76,0.00,,SKC,1.46,VWS V14.01,2013-05-18 02:46:00,
2013-05-17 21:51:00,64.0,56.3,29.96,NE,50,0.0,6.4,76,0.00,,SKC,1.46,VWS V14.01,2013-05-18 02:51:00,
2013-05-17 21:56:00,64.0,56.3,29.96,NE,53,0.0,0.0,76,0.00,,SKC,1.46,VWS V14.01,2013-05-18 02:56:00,
2013-05-17 22:01:00,64.0,56.0,29.96,ENE,70,0.0,4.8,75,0.00,,SKC,1.46,VWS V14.01,2013-05-18 03:01:00,
2013-05-17 22:06:00,64.0,56.0,29.96,East,86,0.0,5.6,75,0.00,,SKC,1.46,VWS V14.01,2013-05-18 03:06:00,
2013-05-17 22:11:00,64.0,56.0,29.96,SE,125,4.8,15.7,75,0.00,,SKC,1.46,VWS V14.01,2013-05-18 03:11:00,
2013-05-17 22:16:00,63.9,55.8,29.96,ESE,114,0.0,0.0,75,0.00,,SKC,1.46,VWS V14.01,2013-05-18 03:16:00,
2013-05-17 22:21:00,63.9,56.2,29.96,East,95,0.0,6.4,76,0.00,,SKC,1.46,VWS V14.01,2013-05-18 03:21:00,
2013-05-17 22:26:00,63.9,55.8,29.96,East,98,8.9,8.9,75,0.00,,SKC,1.46,VWS V14.01,2013-05-18 03:26:00,
2013-05-17 22:31:00,63.7,55.6,29.96,ESE,110,0.0,6.4,75,0.00,,SKC,1.46,VWS V14.01,2013-05-18 03:31:00,
2013-05-17 22:36:00,63.5,55.4,29.96,ENE,72,5.6,9.7,75,0.00,,SKC,1.46,VWS V14.01,2013-05-18 03:36:00,
2013-05-17 22:41:00,63.3,55.6,29.96,ESE,111,0.0,6.4,76,0.00,,SKC,1.46,VWS V14.01,2013-05-18 03:41:00,
2013-05-17 22:46:00,63.1,55.5,29.96,ENE,77,6.4,8.9,76,0.00,,SKC,1.46,VWS V14.01,2013-05-18 03:46:00,
2013-05-17 22:51:00,63.1,55.5,29.96,SE,125,0.0,4.0,76,0.00,,SKC,1.46,VWS V14.01,2013-05-18 03:51:00,
2013-05-17 22:56:00,63.1,55.5,29.96,SE,134,5.6,5.6,76,0.00,,SKC,1.46,VWS V14.01,2013-05-18 03:56:00,
2013-05-17 23:01:00,63.0,55.7,29.96,SE,142,6.4,9.7,77,0.00,,SKC,1.46,VWS V14.01,2013-05-18 04:01:00,
2013-05-17 23:02:00,63.0,55.7,29.96,NE,55,4.8,8.9,77,0.00,,SKC,1.46,VWS V14.01,2013-05-18 04:02:00,
2013-05-17 23:05:00,62.8,55.5,29.96,East,84,0.0,7.2,77,0.00,,SKC,1.46,VWS V14.01,2013-05-18 04:05:00,
2013-05-17 23:10:00,62.6,55.7,29.96,ESE,116,0.0,0.0,78,0.00,,SKC,1.46,VWS V14.01,2013-05-18 04:10:00,
2013-05-17 23:16:00,62.6,55.7,29.96,SSE,164,0.0,0.0,78,0.00,,SKC,1.46,VWS V14.01,2013-05-18 04:16:00,
2013-05-17 23:21:00,62.2,55.7,29.99,SE,136,0.0,0.0,79,0.00,,SKC,1.46,VWS V14.01,2013-05-18 04:21:00,
2013-05-17 23:26:00,62.2,55.7,29.99,SE,124,0.0,6.4,79,0.00,,SKC,1.46,VWS V14.01,2013-05-18 04:26:00,
2013-05-17 23:31:00,62.2,55.7,29.99,ENE,75,0.0,4.8,79,0.00,,SKC,1.46,VWS V14.01,2013-05-18 04:31:00,
2013-05-17 23:36:00,62.2,55.7,29.99,ENE,78,11.3,11.3,79,0.00,,SKC,1.46,VWS V14.01,2013-05-18 04:36:00,
2013-05-17 23:41:00,62.2,55.7,29.99,ESE,106,0.0,7.2,79,0.00,,SKC,1.46,VWS V14.01,2013-05-18 04:41:00,
2013-05-17 23:46:00,62.1,55.5,29.99,ESE,117,5.6,9.7,79,0.00,,SKC,1.46,VWS V14.01,2013-05-18 04:46:00,
2013-05-17 23:51:00,62.1,55.5,29.99,ESE,106,0.0,0.0,79,0.00,,SKC,1.46,VWS V14.01,2013-05-18 04:51:00,
2013-05-17 23:56:00,61.9,55.3,29.99,ESE,109,0.0,0.0,79,0.00,,SKC,1.46,VWS V14.01,2013-05-18 04:56:00,